createdAt,value
2018-07-30T00:01:52.206Z,27.35
2018-07-30T00:06:55.750Z,27.30
2018-07-30T00:11:59.304Z,27.30
2018-07-30T00:17:03.170Z,27.31
2018-07-30T00:22:06.800Z,27.32
2018-07-30T00:27:10.253Z,27.31
2018-07-30T00:32:13.827Z,27.33
2018-07-30T00:37:18.501Z,27.31
2018-07-30T00:42:22.095Z,27.32
2018-07-30T00:47:26.948Z,27.30
2018-07-30T00:52:30.936Z,27.30
2018-07-30T00:57:35.024Z,27.29
2018-07-30T01:02:38.561Z,27.28
2018-07-30T01:07:42.175Z,27.27
2018-07-30T01:12:45.664Z,27.27
2018-07-30T01:17:49.450Z,27.27
2018-07-30T01:22:53.390Z,27.24
2018-07-30T01:27:57.112Z,27.25
2018-07-30T01:33:00.580Z,27.23
2018-07-30T01:38:04.086Z,27.19
2018-07-30T01:43:08.281Z,27.21
2018-07-30T01:48:11.873Z,27.19
2018-07-30T01:53:15.691Z,27.20
2018-07-30T01:58:19.174Z,27.17
2018-07-30T02:03:22.650Z,27.19
2018-07-30T02:08:26.341Z,27.17
2018-07-30T02:13:30.018Z,27.17
2018-07-30T02:18:33.637Z,27.14
2018-07-30T02:23:37.305Z,27.11
2018-07-30T02:28:40.838Z,27.13
2018-07-30T02:33:44.281Z,27.07
2018-07-30T02:38:47.833Z,27.03
2018-07-30T02:43:51.814Z,27.08
2018-07-30T02:48:55.500Z,27.06
2018-07-30T02:53:59.746Z,27.08
2018-07-30T02:59:03.361Z,27.06
2018-07-30T03:04:06.858Z,27.05
2018-07-30T03:09:11.825Z,27.07
2018-07-30T03:14:15.331Z,27.07
2018-07-30T03:19:18.806Z,27.05
2018-07-30T03:24:22.585Z,27.03
2018-07-30T03:29:26.038Z,27.03
2018-07-30T03:34:29.612Z,27.03
2018-07-30T03:39:33.297Z,27.02
2018-07-30T03:44:36.914Z,27.10
2018-07-30T03:49:40.833Z,27.08
2018-07-30T03:54:44.352Z,27.03
2018-07-30T03:59:47.805Z,27.02
2018-07-30T04:04:51.523Z,27.07
2018-07-30T04:09:55.505Z,26.88
2018-07-30T04:14:59.170Z,26.66
2018-07-30T04:20:02.932Z,26.62
2018-07-30T04:25:07.109Z,26.50
2018-07-30T04:30:10.666Z,26.44
2018-07-30T04:35:14.348Z,26.43
2018-07-30T04:40:17.969Z,26.41
2018-07-30T04:45:21.419Z,26.40
2018-07-30T04:50:24.919Z,26.38
2018-07-30T04:55:28.516Z,26.43
2018-07-30T05:00:32.158Z,26.40
2018-07-30T05:05:37.152Z,26.44
2018-07-30T05:10:42.196Z,26.46
2018-07-30T05:15:45.898Z,26.56
2018-07-30T05:20:49.902Z,26.63
2018-07-30T05:25:53.465Z,26.64
2018-07-30T05:30:57.118Z,26.72
2018-07-30T05:36:02.168Z,26.80
2018-07-30T05:41:05.773Z,26.80
2018-07-30T05:46:09.508Z,26.87
2018-07-30T05:51:13.046Z,26.98
2018-07-30T05:56:16.627Z,27.09
2018-07-30T06:01:20.198Z,27.00
2018-07-30T06:06:23.882Z,27.18
2018-07-30T06:11:27.511Z,27.07
2018-07-30T06:16:31.062Z,26.99
2018-07-30T06:21:34.822Z,27.09
2018-07-30T06:26:38.314Z,27.20
2018-07-30T06:31:41.786Z,27.26
2018-07-30T06:36:45.281Z,27.18
2018-07-30T06:41:49.056Z,27.10
2018-07-30T06:46:52.678Z,27.17
2018-07-30T06:51:56.186Z,27.22
2018-07-30T06:56:59.677Z,27.11
2018-07-30T07:02:03.299Z,27.17
2018-07-30T07:07:07.017Z,27.37
2018-07-30T07:12:10.509Z,27.31
2018-07-30T07:17:13.973Z,27.27
2018-07-30T07:22:17.432Z,27.31
2018-07-30T07:27:21.127Z,27.32
2018-07-30T07:32:24.734Z,27.34
2018-07-30T07:37:28.999Z,27.33
2018-07-30T07:42:32.610Z,27.37
2018-07-30T07:47:36.530Z,27.40
2018-07-30T07:52:40.341Z,27.39
2018-07-30T07:57:43.998Z,27.40
2018-07-30T08:02:47.890Z,27.45
2018-07-30T08:07:51.597Z,27.39
2018-07-30T08:12:55.345Z,27.42
2018-07-30T08:17:59.139Z,27.55
2018-07-30T08:23:02.650Z,27.48
2018-07-30T08:28:06.491Z,27.48
2018-07-30T08:33:10.172Z,27.50
2018-07-30T08:38:13.772Z,27.49
2018-07-30T08:43:17.362Z,27.49
2018-07-30T08:48:20.857Z,27.51
2018-07-30T08:53:24.781Z,27.56
2018-07-30T08:58:28.524Z,27.61
2018-07-30T09:03:32.238Z,27.59
2018-07-30T09:08:35.801Z,27.58
2018-07-30T09:13:39.586Z,27.60
2018-07-30T09:18:43.288Z,27.64
2018-07-30T09:23:46.869Z,27.71
2018-07-30T09:28:50.535Z,27.73
2018-07-30T09:33:54.317Z,27.74
2018-07-30T09:38:57.777Z,27.73
2018-07-30T09:44:01.277Z,27.76
2018-07-30T09:49:05.111Z,27.77
2018-07-30T09:54:08.811Z,27.77
2018-07-30T09:59:12.282Z,27.77
2018-07-30T10:04:16.065Z,27.76
2018-07-30T10:09:19.657Z,27.71
2018-07-30T10:14:23.485Z,27.77
2018-07-30T10:19:27.084Z,27.81
2018-07-30T10:24:30.829Z,27.83
2018-07-30T10:29:34.305Z,27.84
2018-07-30T10:34:38.408Z,27.85
2018-07-30T10:39:42.211Z,27.84
2018-07-30T10:44:45.749Z,27.82
2018-07-30T10:49:49.231Z,27.86
2018-07-30T10:54:52.856Z,27.85
2018-07-30T10:59:56.421Z,27.86
2018-07-30T11:05:00.014Z,27.86
2018-07-30T11:10:04.222Z,27.87
2018-07-30T11:15:08.083Z,27.85
2018-07-30T11:20:11.538Z,27.83
2018-07-30T11:25:15.303Z,27.85
2018-07-30T11:30:19.202Z,27.84
2018-07-30T11:35:22.893Z,27.84
2018-07-30T11:40:26.530Z,27.84
2018-07-30T11:45:30.045Z,27.85
2018-07-30T11:50:33.565Z,27.90
2018-07-30T11:55:37.172Z,27.93
2018-07-30T12:00:41.266Z,27.94
2018-07-30T12:05:45.018Z,27.92
2018-07-30T12:10:48.510Z,27.93
2018-07-30T12:15:51.988Z,27.95
2018-07-30T12:20:55.690Z,27.95
2018-07-30T12:25:59.345Z,27.93
2018-07-30T12:31:02.953Z,27.93
2018-07-30T12:36:06.689Z,27.97
2018-07-30T12:41:10.237Z,27.97
2018-07-30T12:46:13.966Z,27.96
2018-07-30T12:51:17.449Z,28.00
2018-07-30T12:56:20.961Z,27.99
2018-07-30T13:01:24.408Z,28.02
2018-07-30T13:06:27.913Z,27.99
2018-07-30T13:11:31.431Z,27.97
2018-07-30T13:16:35.205Z,27.98
2018-07-30T13:21:38.708Z,28.00
2018-07-30T13:26:42.297Z,28.00
2018-07-30T13:31:45.785Z,27.99
2018-07-30T13:36:49.389Z,28.01
2018-07-30T13:41:53.252Z,28.16
2018-07-30T13:46:56.889Z,28.20
2018-07-30T13:52:00.353Z,28.21
2018-07-30T13:57:04.126Z,28.32
2018-07-30T14:02:07.599Z,28.35
2018-07-30T14:07:11.325Z,28.35
2018-07-30T14:12:14.843Z,28.33
2018-07-30T14:17:18.786Z,28.30
2018-07-30T14:22:23.148Z,28.30
2018-07-30T14:27:27.845Z,28.27
2018-07-30T14:32:31.595Z,28.32
2018-07-30T14:37:35.137Z,28.28
2018-07-30T14:42:38.718Z,28.30
2018-07-30T14:47:42.647Z,28.30
2018-07-30T14:52:46.489Z,28.32
2018-07-30T14:57:50.026Z,28.32
2018-07-30T15:02:53.506Z,28.33
2018-07-30T15:07:57.401Z,28.33
2018-07-30T15:13:01.653Z,28.34
2018-07-30T15:18:05.658Z,28.37
2018-07-30T15:23:09.415Z,28.36
2018-07-30T15:28:13.448Z,28.37
2018-07-30T15:33:16.972Z,28.38
2018-07-30T15:38:20.541Z,28.53
2018-07-30T15:43:24.072Z,28.66
2018-07-30T15:48:27.701Z,28.72
2018-07-30T15:53:31.438Z,28.79
2018-07-30T15:58:35.050Z,28.85
2018-07-30T16:03:38.666Z,28.85
2018-07-30T16:08:42.173Z,28.95
2018-07-30T16:13:45.625Z,29.00
2018-07-30T16:18:49.102Z,28.99
2018-07-30T16:23:52.572Z,28.86
2018-07-30T16:28:56.402Z,28.94
2018-07-30T16:34:00.267Z,28.99
2018-07-30T16:39:05.490Z,29.09
2018-07-30T16:44:09.682Z,29.13
2018-07-30T16:49:13.555Z,29.11
2018-07-30T16:54:17.605Z,29.20
2018-07-30T16:59:21.740Z,29.20
2018-07-30T17:04:25.554Z,29.19
2018-07-30T17:09:29.619Z,28.94
2018-07-30T17:14:33.510Z,28.91
2018-07-30T17:19:37.149Z,28.91
2018-07-30T17:24:41.254Z,28.89
2018-07-30T17:29:45.020Z,28.88
2018-07-30T17:34:49.113Z,28.88
2018-07-30T17:39:53.594Z,28.87
2018-07-30T17:44:57.341Z,28.86
2018-07-30T17:50:01.079Z,28.85
2018-07-30T17:55:05.082Z,28.85
2018-07-30T18:00:10.006Z,28.83
2018-07-30T18:05:18.084Z,28.81
2018-07-30T18:10:25.569Z,28.82
2018-07-30T18:15:29.593Z,28.78
2018-07-30T18:20:34.134Z,28.81
2018-07-30T18:25:38.196Z,28.79
2018-07-30T18:30:42.417Z,28.80
2018-07-30T18:35:46.556Z,28.79
2018-07-30T18:40:50.608Z,28.80
2018-07-30T18:45:54.405Z,28.80
2018-07-30T18:50:58.291Z,28.79
2018-07-30T18:56:01.945Z,28.79
2018-07-30T19:01:05.662Z,28.79
2018-07-30T19:06:09.580Z,28.75
2018-07-30T19:11:13.076Z,28.74
2018-07-30T19:16:16.757Z,28.72
2018-07-30T19:21:20.542Z,28.74
2018-07-30T19:26:24.197Z,28.74
2018-07-30T19:31:27.904Z,28.71
2018-07-30T19:36:31.418Z,28.72
2018-07-30T19:41:35.127Z,28.70
2018-07-30T19:46:38.968Z,28.64
2018-07-30T19:51:42.824Z,28.64
2018-07-30T19:56:46.694Z,28.60
2018-07-30T20:01:50.545Z,28.59
2018-07-30T20:06:54.563Z,28.60
2018-07-30T20:11:58.801Z,28.64
2018-07-30T20:17:03.886Z,28.65
2018-07-30T20:22:07.446Z,28.63
2018-07-30T20:27:11.533Z,28.68
2018-07-30T20:32:15.793Z,28.65
2018-07-30T20:37:20.246Z,28.65
2018-07-30T20:42:24.783Z,28.63
2018-07-30T20:47:28.603Z,28.64
2018-07-30T20:52:32.868Z,28.61
2018-07-30T20:57:37.206Z,28.61
2018-07-30T21:02:40.765Z,28.58
2018-07-30T21:07:44.837Z,28.62
2018-07-30T21:12:48.821Z,28.64
2018-07-30T21:17:52.538Z,28.61
2018-07-30T21:22:56.263Z,28.58
2018-07-30T21:28:00.222Z,28.54
2018-07-30T21:33:03.890Z,28.55
2018-07-30T21:38:07.812Z,28.54
2018-07-30T21:43:11.309Z,28.51
2018-07-30T21:48:14.789Z,28.50
2018-07-30T21:53:18.509Z,28.51
2018-07-30T21:58:22.033Z,28.51
2018-07-30T22:03:26.149Z,28.48
2018-07-30T22:08:30.229Z,28.49
2018-07-30T22:13:33.697Z,28.50
2018-07-30T22:18:37.416Z,28.46
2018-07-30T22:23:40.962Z,28.46
2018-07-30T22:28:44.744Z,28.39
2018-07-30T22:33:48.675Z,28.44
2018-07-30T22:38:52.370Z,28.45
2018-07-30T22:43:56.115Z,28.41
2018-07-30T22:48:59.853Z,28.42
2018-07-30T22:54:03.455Z,28.41
2018-07-30T22:59:07.685Z,28.40
2018-07-30T23:04:11.377Z,28.40
2018-07-30T23:09:14.942Z,28.41
2018-07-30T23:14:18.586Z,28.40
2018-07-30T23:19:22.234Z,28.39
2018-07-30T23:24:25.741Z,28.38
2018-07-30T23:29:29.386Z,28.38
2018-07-30T23:34:33.141Z,28.37
2018-07-30T23:39:36.657Z,28.36
2018-07-30T23:44:40.121Z,28.31
2018-07-30T23:49:43.810Z,28.31
2018-07-30T23:54:47.270Z,28.27
2018-07-30T23:59:50.844Z,28.24
